Aeroporto :
LOGIN :

Iscrizione | Disclaimer

   EN    FR    IT 

 










Sommario :    VFR   VFR Marginale   IFR   IFR Intensivo   IFR Molto Intensivo
Visibilità : 
Base nubi : 
>= 8 km
>= 3000ft
5 / 8 km
1000 / 3000 ft
1500m / 5 km
500 / 1000 ft
800 / 1500m
200 / 500 ft
< 800m
< 200 ft
Simboli :   Temporali  Nebbia  Neve Forte  Precipitazioni Forti  Vento > 20 kt
SIGMETs :   Varie  Temporali  Ghiacco  Turbolenza  Onda orograficha  Ceneri Vulcaniche






- Altitudine del aeroporto : 24 ft
- Codice IATA : IBZ


LEIB - Ibiza

ULTIMO METAR :
  • 251230Z 23012KT CAVOK 18/12 Q1016 NOSIG

METARs OBSOLETI :
  • 251200Z 22011KT 9999 FEW016 18/11 Q1016 NOSIG
  • 251130Z 23008KT 190V250 9999 FEW016 18/12 Q1017 NOSIG
  • 251100Z 21008KT 180V310 9999 FEW015 18/13 Q1017 NOSIG
  • 251030Z VRB07KT 9999 FEW020 19/11 Q1017 NOSIG
  • 251000Z 23011KT 9999 FEW010 17/14 Q1017 NOSIG

TAF TAF LEIB
Valido dal 25 a 09 ore il 26 a 09 ore UTC


250800Z 2509/2609 23010KT 9999 SCT008 TX18/2512Z TN07/2606Z
BECMG 2518/2520 VRB05KT



MetMap, La meteo Aeronautica in un colpo d'occhio ! - Copyright ORBIFLY Dicembre 2007 - Disclaimer

ORBIFLY MET'MAP TEAM :

Programmazione e sviluppo : Alexandra Zaïnal
Concezione : Baudouin d'Aumeries
Aiuto per la programmazione : Marc-Olivier Méhu
Supporto tecnico e logistico : Manuel Goepfert
Aiuto per la traduzione : Arnaldo La Scala

Contatto : metmap@orbifly.com




FONTI E CREDITI :

   NOAA